createdAt,value
2022-09-11T00:01:35.233Z,4.38
2022-09-11T00:04:03.843Z,3.80
2022-09-11T00:06:31.218Z,6.15
2022-09-11T00:09:01.806Z,12.13
2022-09-11T00:11:33.044Z,5.37
2022-09-11T00:14:01.123Z,5.57
2022-09-11T00:16:29.559Z,5.15
2022-09-11T00:19:03.952Z,5.65
2022-09-11T00:21:31.335Z,6.30
2022-09-11T00:23:59.020Z,5.65
2022-09-11T00:26:26.378Z,5.10
2022-09-11T00:28:55.210Z,4.93
2022-09-11T00:31:25.883Z,4.05
2022-09-11T00:33:53.989Z,6.07
2022-09-11T00:36:24.406Z,4.00
2022-09-11T00:38:52.330Z,5.30
2022-09-11T00:41:36.293Z,4.22
2022-09-11T00:44:16.877Z,4.72
2022-09-11T00:47:00.239Z,6.10
2022-09-11T00:49:40.768Z,4.28
2022-09-11T00:52:23.013Z,5.50
2022-09-11T00:54:57.362Z,5.50
2022-09-11T00:57:28.768Z,3.33
2022-09-11T00:59:59.499Z,5.55
2022-09-11T01:02:30.031Z,4.53
2022-09-11T01:04:58.337Z,4.80
2022-09-11T01:07:26.835Z,5.97
2022-09-11T01:09:55.876Z,6.22
2022-09-11T01:12:36.595Z,5.38
2022-09-11T01:15:08.818Z,4.13
2022-09-11T01:17:58.118Z,4.90
2022-09-11T01:20:35.547Z,4.72
2022-09-11T01:23:32.127Z,3.50
2022-09-11T01:26:24.669Z,4.05
2022-09-11T01:29:06.429Z,6.15
2022-09-11T01:34:25.975Z,6.97
2022-09-11T01:37:08.396Z,5.22
2022-09-11T01:39:44.996Z,5.15
2022-09-11T01:42:17.782Z,6.57
2022-09-11T01:44:52.800Z,6.55
2022-09-11T01:47:21.138Z,6.57
2022-09-11T01:50:05.272Z,8.07
2022-09-11T01:52:41.951Z,11.30
2022-09-11T01:55:17.517Z,8.32
2022-09-11T01:58:07.134Z,17.38
2022-09-11T02:00:39.472Z,9.27
2022-09-11T02:03:14.297Z,10.10
2022-09-11T02:05:51.625Z,7.43
2022-09-11T02:08:44.159Z,10.40
2022-09-11T02:11:14.303Z,11.05
2022-09-11T02:14:06.400Z,9.43
2022-09-11T02:16:51.631Z,10.32
2022-09-11T02:19:25.974Z,7.18
2022-09-11T02:21:53.492Z,5.45
2022-09-11T02:24:22.837Z,7.82
2022-09-11T02:27:00.684Z,5.50
2022-09-11T02:29:31.321Z,6.68
2022-09-11T02:32:00.873Z,6.45
2022-09-11T02:34:32.687Z,4.40
2022-09-11T02:37:18.963Z,6.55
2022-09-11T02:40:19.484Z,4.30
2022-09-11T02:43:19.384Z,6.00
2022-09-11T02:46:16.530Z,6.93
2022-09-11T02:48:53.777Z,8.02
2022-09-11T02:51:46.785Z,5.93
2022-09-11T02:54:40.858Z,4.38
2022-09-11T02:57:25.159Z,4.45
2022-09-11T03:00:06.499Z,5.28
2022-09-11T03:02:37.528Z,5.03
2022-09-11T03:05:06.349Z,4.60
2022-09-11T03:07:34.114Z,4.05
2022-09-11T03:10:01.782Z,3.17
2022-09-11T03:12:30.702Z,4.88
2022-09-11T03:14:57.960Z,9.38
2022-09-11T03:17:25.533Z,4.75
2022-09-11T03:19:53.055Z,5.30
2022-09-11T03:22:20.232Z,5.03
2022-09-11T03:24:48.257Z,3.40
2022-09-11T03:27:16.009Z,5.68
2022-09-11T03:29:44.906Z,5.10
2022-09-11T03:32:12.365Z,6.97
2022-09-11T03:34:39.746Z,6.07
2022-09-11T03:37:08.336Z,5.00
2022-09-11T03:39:35.927Z,4.47
2022-09-11T03:42:03.525Z,5.75
2022-09-11T03:44:30.695Z,4.43
2022-09-11T03:46:57.980Z,3.72
2022-09-11T03:49:25.716Z,4.30
2022-09-11T03:51:52.873Z,4.70
2022-09-11T03:54:21.017Z,3.65
2022-09-11T03:56:49.109Z,4.82
2022-09-11T03:59:16.494Z,4.25
2022-09-11T04:01:45.165Z,7.13
2022-09-11T04:04:16.115Z,4.60
2022-09-11T04:06:44.399Z,6.30
2022-09-11T04:09:12.051Z,4.15
2022-09-11T04:11:40.220Z,6.75
2022-09-11T04:14:14.613Z,6.35
2022-09-11T04:16:43.316Z,8.57
2022-09-11T04:19:13.311Z,6.05
2022-09-11T04:21:42.653Z,5.68
2022-09-11T04:24:10.441Z,7.40
2022-09-11T04:26:37.842Z,5.60
2022-09-11T04:29:22.576Z,6.22
2022-09-11T04:31:51.310Z,5.82
2022-09-11T04:34:19.052Z,6.80
2022-09-11T04:36:46.492Z,8.55
2022-09-11T04:39:20.106Z,36.55
2022-09-11T04:41:49.200Z,12.45
2022-09-11T04:44:17.032Z,7.10
2022-09-11T04:46:45.314Z,8.43
2022-09-11T04:49:13.076Z,10.45
2022-09-11T04:51:41.157Z,4.90
2022-09-11T04:54:16.588Z,7.82
2022-09-11T04:56:44.168Z,5.60
2022-09-11T04:59:15.955Z,3.95
2022-09-11T05:01:48.842Z,8.38
2022-09-11T05:04:25.796Z,6.25
2022-09-11T05:06:54.942Z,4.72
2022-09-11T05:09:22.202Z,5.32
2022-09-11T05:11:50.436Z,5.05
2022-09-11T05:14:18.537Z,6.57
2022-09-11T05:16:48.576Z,4.47
2022-09-11T05:19:19.144Z,4.22
2022-09-11T05:21:48.153Z,5.15
2022-09-11T05:24:15.393Z,5.38
2022-09-11T05:26:43.218Z,6.05
2022-09-11T05:29:14.897Z,6.45
2022-09-11T05:32:03.573Z,5.50
2022-09-11T05:34:30.845Z,6.38
2022-09-11T05:36:59.207Z,5.00
2022-09-11T05:39:29.982Z,6.07
2022-09-11T05:41:58.551Z,4.55
2022-09-11T05:44:31.063Z,5.22
2022-09-11T05:46:58.893Z,8.13
2022-09-11T05:49:26.953Z,5.75
2022-09-11T05:51:54.322Z,7.55
2022-09-11T05:54:21.636Z,4.88
2022-09-11T05:56:49.065Z,4.85
2022-09-11T05:59:23.486Z,5.10
2022-09-11T06:01:51.637Z,5.40
2022-09-11T06:04:29.023Z,4.57
2022-09-11T06:06:58.730Z,7.32
2022-09-11T06:09:27.288Z,5.18
2022-09-11T06:11:55.144Z,5.72
2022-09-11T06:14:22.330Z,5.57
2022-09-11T06:16:51.489Z,4.80
2022-09-11T06:19:19.780Z,4.40
2022-09-11T06:21:47.157Z,5.00
2022-09-11T06:24:23.566Z,5.45
2022-09-11T06:26:51.361Z,5.97
2022-09-11T06:29:19.488Z,5.47
2022-09-11T06:31:51.454Z,5.55
2022-09-11T06:34:22.421Z,8.98
2022-09-11T06:36:52.317Z,5.85
2022-09-11T06:39:23.068Z,5.20
2022-09-11T06:41:53.902Z,5.00
2022-09-11T06:44:27.551Z,12.18
2022-09-11T06:46:57.619Z,8.55
2022-09-11T06:49:25.802Z,7.25
2022-09-11T06:52:11.597Z,6.15
2022-09-11T06:54:41.612Z,7.07
2022-09-11T06:57:14.195Z,7.32
2022-09-11T06:59:43.140Z,6.60
2022-09-11T07:02:12.705Z,5.93
2022-09-11T07:04:40.153Z,6.53
2022-09-11T07:07:07.915Z,5.93
2022-09-11T07:09:37.593Z,4.40
2022-09-11T07:12:05.391Z,5.25
2022-09-11T07:14:33.006Z,6.80
2022-09-11T07:17:10.530Z,5.50
2022-09-11T07:19:39.134Z,5.50
2022-09-11T07:22:06.512Z,5.50
2022-09-11T07:24:35.362Z,8.82
2022-09-11T07:27:02.710Z,7.55
2022-09-11T07:32:02.321Z,4.60
2022-09-11T07:34:29.762Z,6.20
2022-09-11T07:37:00.293Z,6.03
2022-09-11T07:39:28.027Z,6.72
2022-09-11T07:42:07.377Z,12.25
2022-09-11T07:44:35.876Z,5.95
2022-09-11T07:47:04.174Z,9.05
2022-09-11T07:49:36.772Z,6.95
2022-09-11T07:52:05.256Z,5.20
2022-09-11T07:54:44.952Z,5.53
2022-09-11T07:57:14.840Z,5.75
2022-09-11T07:59:42.834Z,5.70
2022-09-11T08:02:11.733Z,8.13
2022-09-11T08:04:39.606Z,7.55
2022-09-11T08:07:06.807Z,8.15
2022-09-11T08:09:36.398Z,6.65
2022-09-11T08:12:06.387Z,6.80
2022-09-11T08:14:37.001Z,6.63
2022-09-11T08:17:13.721Z,7.13
2022-09-11T08:19:41.971Z,6.03
2022-09-11T08:22:09.103Z,6.70
2022-09-11T08:24:42.870Z,5.18
2022-09-11T08:27:12.737Z,6.72
2022-09-11T08:29:42.290Z,7.38
2022-09-11T08:32:10.527Z,7.65
2022-09-11T08:34:39.460Z,6.93
2022-09-11T08:37:06.855Z,6.22
2022-09-11T08:39:35.883Z,7.07
2022-09-11T08:42:15.096Z,6.80
2022-09-11T08:44:54.105Z,6.18
2022-09-11T08:47:46.595Z,8.77
2022-09-11T08:50:36.087Z,5.88
2022-09-11T08:53:04.198Z,6.75
2022-09-11T08:55:43.885Z,9.23
2022-09-11T08:58:33.607Z,5.35
2022-09-11T09:01:26.173Z,6.53
2022-09-11T09:04:19.055Z,4.70
2022-09-11T09:07:01.660Z,5.20
2022-09-11T09:09:43.041Z,5.88
2022-09-11T09:12:35.464Z,4.68
2022-09-11T09:15:11.467Z,6.60
2022-09-11T09:17:41.486Z,6.13
2022-09-11T09:20:16.491Z,4.07
2022-09-11T09:22:47.357Z,5.45
2022-09-11T09:25:19.960Z,3.83
2022-09-11T09:27:50.964Z,4.90
2022-09-11T09:30:24.728Z,3.08
2022-09-11T09:33:11.403Z,3.25
2022-09-11T09:35:43.202Z,3.75
2022-09-11T09:38:21.801Z,5.38
2022-09-11T09:41:00.164Z,4.25
2022-09-11T09:43:48.701Z,3.72
2022-09-11T09:46:42.254Z,4.43
2022-09-11T09:49:19.185Z,3.05
2022-09-11T09:51:46.306Z,3.90
2022-09-11T09:54:20.811Z,5.75
2022-09-11T09:57:00.304Z,4.63
2022-09-11T09:59:53.316Z,3.22
2022-09-11T10:02:55.152Z,3.05
2022-09-11T10:05:30.613Z,3.40
2022-09-11T10:08:03.809Z,4.40
2022-09-11T10:10:36.450Z,2.75
2022-09-11T10:13:25.073Z,3.28
2022-09-11T10:15:55.906Z,3.38
2022-09-11T10:18:45.219Z,2.57
2022-09-11T10:21:12.713Z,4.15
2022-09-11T10:23:58.011Z,2.75
2022-09-11T10:26:49.794Z,4.40
2022-09-11T10:29:25.744Z,3.17
2022-09-11T10:31:57.754Z,4.20
2022-09-11T10:34:28.088Z,2.30
2022-09-11T10:37:07.620Z,3.47
2022-09-11T10:39:36.912Z,4.50
2022-09-11T10:42:25.909Z,3.95
2022-09-11T10:44:57.405Z,2.90
2022-09-11T10:47:27.649Z,2.72
2022-09-11T10:50:31.009Z,5.43
2022-09-11T10:52:58.419Z,3.10
2022-09-11T10:55:30.594Z,2.47
2022-09-11T10:58:09.040Z,2.83
2022-09-11T11:00:38.681Z,2.47
2022-09-11T11:03:17.656Z,4.38
2022-09-11T11:05:50.560Z,3.17
2022-09-11T11:08:39.476Z,4.78
2022-09-11T11:11:42.593Z,2.28
2022-09-11T11:14:15.602Z,3.20
2022-09-11T11:17:15.769Z,4.68
2022-09-11T11:20:07.550Z,3.03
2022-09-11T11:22:49.829Z,3.33
2022-09-11T11:25:22.911Z,3.60
2022-09-11T11:27:56.013Z,3.78
2022-09-11T11:30:36.635Z,5.97
2022-09-11T11:33:09.731Z,3.63
2022-09-11T11:35:48.928Z,3.67
2022-09-11T11:38:29.073Z,2.25
2022-09-11T11:41:25.426Z,2.22
2022-09-11T11:44:16.414Z,3.20
2022-09-11T11:46:48.834Z,2.72
2022-09-11T11:49:20.936Z,4.20
2022-09-11T11:51:57.201Z,3.28
2022-09-11T11:54:37.184Z,3.25
2022-09-11T11:57:12.915Z,3.90
2022-09-11T12:00:01.489Z,4.97
2022-09-11T12:02:49.571Z,4.80
2022-09-11T12:05:24.202Z,4.38
2022-09-11T12:07:52.083Z,5.50
2022-09-11T12:10:24.859Z,3.97
2022-09-11T12:12:56.467Z,6.15
2022-09-11T12:15:33.693Z,6.45
2022-09-11T12:18:11.628Z,4.32
2022-09-11T12:20:41.315Z,4.93
2022-09-11T12:23:32.539Z,4.88
2022-09-11T12:26:08.894Z,4.93
2022-09-11T12:28:37.904Z,8.70
2022-09-11T12:31:11.693Z,4.38
2022-09-11T12:33:43.042Z,6.95
2022-09-11T12:36:24.615Z,5.78
2022-09-11T12:38:57.722Z,4.70
2022-09-11T12:41:28.412Z,4.28
2022-09-11T12:43:56.921Z,6.07
2022-09-11T12:46:24.476Z,4.80
2022-09-11T12:49:20.981Z,6.88
2022-09-11T12:52:00.145Z,7.20
2022-09-11T12:54:42.376Z,7.88
2022-09-11T12:57:19.273Z,4.20
2022-09-11T12:59:53.425Z,4.68
2022-09-11T13:02:23.486Z,5.53
2022-09-11T13:04:52.223Z,4.95
2022-09-11T13:07:45.356Z,6.00
2022-09-11T13:10:46.772Z,4.95
2022-09-11T13:13:35.031Z,5.35
2022-09-11T13:16:21.953Z,5.22
2022-09-11T13:18:49.284Z,5.70
2022-09-11T13:21:22.001Z,5.28
2022-09-11T13:23:52.307Z,4.13
2022-09-11T13:26:31.540Z,3.20
2022-09-11T13:29:01.480Z,3.42
2022-09-11T13:31:49.798Z,4.57
2022-09-11T13:34:20.164Z,3.20
2022-09-11T13:36:52.304Z,6.25
2022-09-11T13:39:22.242Z,3.88
2022-09-11T13:41:53.314Z,3.92
2022-09-11T13:44:52.169Z,4.20
2022-09-11T13:47:24.899Z,4.32
2022-09-11T13:49:55.679Z,4.57
2022-09-11T13:52:26.727Z,3.28
2022-09-11T13:54:57.532Z,5.38
2022-09-11T13:57:28.252Z,3.72
2022-09-11T13:59:57.194Z,6.57
2022-09-11T14:02:28.815Z,7.13
2022-09-11T14:05:09.179Z,7.10
2022-09-11T14:07:47.359Z,4.53
2022-09-11T14:10:25.404Z,5.30
2022-09-11T14:13:04.356Z,5.85
2022-09-11T14:15:52.201Z,5.88
2022-09-11T14:18:22.563Z,4.82
2022-09-11T14:20:50.249Z,6.32
2022-09-11T14:23:24.059Z,7.95
2022-09-11T14:26:17.149Z,9.95
2022-09-11T14:28:55.654Z,6.95
2022-09-11T14:31:37.640Z,8.43
2022-09-11T14:34:11.130Z,7.10
2022-09-11T14:37:07.882Z,4.40
2022-09-11T14:39:39.605Z,6.55
2022-09-11T14:42:18.158Z,6.82
2022-09-11T14:44:48.383Z,4.10
2022-09-11T14:47:22.012Z,4.32
2022-09-11T14:49:51.738Z,6.15
2022-09-11T14:52:22.921Z,4.53
2022-09-11T14:54:50.501Z,6.75
2022-09-11T14:57:26.413Z,6.15
2022-09-11T14:59:54.098Z,5.25
2022-09-11T15:02:23.779Z,7.43
2022-09-11T15:04:54.483Z,6.28
2022-09-11T15:07:23.452Z,6.82
2022-09-11T15:09:52.688Z,7.22
2022-09-11T15:12:21.774Z,6.07
2022-09-11T15:14:57.233Z,6.25
2022-09-11T15:17:31.624Z,7.15
2022-09-11T15:20:00.699Z,8.50
2022-09-11T15:22:28.769Z,7.15
2022-09-11T15:25:00.430Z,5.20
2022-09-11T15:27:28.337Z,4.93
2022-09-11T15:29:55.815Z,5.85
2022-09-11T15:32:23.244Z,11.65
2022-09-11T15:34:51.782Z,13.90
2022-09-11T15:37:19.274Z,7.47
2022-09-11T15:39:46.654Z,8.77
2022-09-11T15:42:14.471Z,5.05
2022-09-11T15:44:41.682Z,7.13
2022-09-11T15:47:09.402Z,7.18
2022-09-11T15:49:47.640Z,5.40
2022-09-11T15:52:15.260Z,41.15
2022-09-11T15:54:45.507Z,95.60
2022-09-11T15:57:13.133Z,32.33
2022-09-11T15:59:41.002Z,25.98
2022-09-11T16:02:10.700Z,9.18
2022-09-11T16:04:38.043Z,8.40
2022-09-11T16:07:05.304Z,20.80
2022-09-11T16:09:33.452Z,14.57
2022-09-11T16:12:02.012Z,8.85
2022-09-11T16:14:33.141Z,6.55
2022-09-11T16:17:02.426Z,5.72
2022-09-11T16:19:30.931Z,6.25
2022-09-11T16:22:01.423Z,5.72
2022-09-11T16:24:31.575Z,7.60
2022-09-11T16:27:00.895Z,5.85
2022-09-11T16:29:58.914Z,5.15
2022-09-11T16:32:28.629Z,8.15
2022-09-11T16:34:57.907Z,9.60
2022-09-11T16:37:26.187Z,7.68
2022-09-11T16:39:53.794Z,6.50
2022-09-11T16:42:21.811Z,8.95
2022-09-11T16:44:50.238Z,8.02
2022-09-11T16:47:18.303Z,10.23
2022-09-11T16:52:34.800Z,8.80
2022-09-11T16:55:04.001Z,8.23
2022-09-11T16:57:32.349Z,7.90
2022-09-11T17:00:00.102Z,8.25
2022-09-11T17:02:30.134Z,7.57
2022-09-11T17:04:57.528Z,7.07
2022-09-11T17:07:25.186Z,14.82
2022-09-11T17:09:53.208Z,9.10
2022-09-11T17:12:22.299Z,11.38
2022-09-11T17:14:50.285Z,13.68
2022-09-11T17:17:17.827Z,9.90
2022-09-11T17:19:45.116Z,9.15
2022-09-11T17:22:12.545Z,8.00
2022-09-11T17:24:44.205Z,7.63
2022-09-11T17:27:11.643Z,11.85
2022-09-11T17:29:43.810Z,9.70
2022-09-11T17:32:31.174Z,9.40
2022-09-11T17:34:58.891Z,9.57
2022-09-11T17:37:27.067Z,10.88
2022-09-11T17:39:54.514Z,8.85
2022-09-11T17:42:22.742Z,11.15
2022-09-11T17:44:50.332Z,10.25
2022-09-11T17:47:17.649Z,10.65
2022-09-11T17:49:45.562Z,11.57
2022-09-11T17:52:13.987Z,10.38
2022-09-11T17:54:42.301Z,10.10
2022-09-11T17:57:09.469Z,10.10
2022-09-11T17:59:37.023Z,11.10
2022-09-11T18:02:04.565Z,9.45
2022-09-11T18:04:32.021Z,12.07
2022-09-11T18:06:59.643Z,12.43
2022-09-11T18:09:27.185Z,13.23
2022-09-11T18:11:54.902Z,12.38
2022-09-11T18:14:23.039Z,12.18
2022-09-11T18:16:50.805Z,15.32
2022-09-11T18:19:21.926Z,11.45
2022-09-11T18:21:50.924Z,12.50
2022-09-11T18:27:07.077Z,12.38
2022-09-11T18:29:35.354Z,12.68
2022-09-11T18:32:03.520Z,14.70
2022-09-11T18:34:31.273Z,13.95
2022-09-11T18:37:00.015Z,12.90
2022-09-11T18:39:27.491Z,14.20
2022-09-11T18:41:55.465Z,13.77
2022-09-11T18:44:25.361Z,12.70
2022-09-11T18:46:54.493Z,13.38
2022-09-11T18:49:42.115Z,16.33
2022-09-11T18:52:10.797Z,11.80
2022-09-11T18:54:38.726Z,15.77
2022-09-11T18:57:06.261Z,13.30
2022-09-11T18:59:33.602Z,14.68
2022-09-11T19:02:01.395Z,13.95
2022-09-11T19:04:29.022Z,22.20
2022-09-11T19:06:56.265Z,13.18
2022-09-11T19:09:46.143Z,15.90
2022-09-11T19:12:15.972Z,12.88
2022-09-11T19:14:43.516Z,10.68
2022-09-11T19:17:10.844Z,15.65
2022-09-11T19:19:38.210Z,12.40
2022-09-11T19:22:05.888Z,15.27
2022-09-11T19:24:33.692Z,13.65
2022-09-11T19:27:00.966Z,11.02
2022-09-11T19:29:28.746Z,10.85
2022-09-11T19:31:56.119Z,11.20
2022-09-11T19:37:12.925Z,12.68
2022-09-11T19:39:40.974Z,12.35
2022-09-11T19:42:09.338Z,10.05
2022-09-11T19:44:37.297Z,11.10
2022-09-11T19:47:04.684Z,12.43
2022-09-11T19:49:33.113Z,11.63
2022-09-11T19:52:01.632Z,12.48
2022-09-11T19:54:30.753Z,13.70
2022-09-11T19:56:57.997Z,11.98
2022-09-11T19:59:25.891Z,11.93
2022-09-11T20:02:12.537Z,15.18
2022-09-11T20:04:40.214Z,13.05
2022-09-11T20:07:07.344Z,11.13
2022-09-11T20:09:35.348Z,11.95
2022-09-11T20:12:03.064Z,12.80
2022-09-11T20:14:30.510Z,14.10
2022-09-11T20:16:57.657Z,13.35
2022-09-11T20:19:25.409Z,12.20
2022-09-11T20:21:54.328Z,11.15
2022-09-11T20:24:21.426Z,13.15
2022-09-11T20:26:53.409Z,13.15
2022-09-11T20:29:20.663Z,12.50
2022-09-11T20:31:51.050Z,10.05
2022-09-11T20:34:19.450Z,13.88
2022-09-11T20:36:47.605Z,11.98
2022-09-11T20:39:16.060Z,11.18
2022-09-11T20:41:44.969Z,11.10
2022-09-11T20:44:12.235Z,11.13
2022-09-11T20:46:40.775Z,11.70
2022-09-11T20:49:08.264Z,12.52
2022-09-11T20:51:35.525Z,11.95
2022-09-11T20:54:04.051Z,15.15
2022-09-11T20:56:34.605Z,13.30
2022-09-11T20:59:01.779Z,11.00
2022-09-11T21:01:32.501Z,14.77
2022-09-11T21:04:01.600Z,10.98
2022-09-11T21:06:31.804Z,11.07
2022-09-11T21:09:01.740Z,14.57
2022-09-11T21:11:30.120Z,11.95
2022-09-11T21:13:57.928Z,12.60
2022-09-11T21:16:25.279Z,14.60
2022-09-11T21:18:55.936Z,12.65
2022-09-11T21:21:25.194Z,11.88
2022-09-11T21:24:04.009Z,12.55
2022-09-11T21:26:33.489Z,11.85
2022-09-11T21:29:03.369Z,13.75
2022-09-11T21:31:30.783Z,15.65
2022-09-11T21:33:58.155Z,12.50
2022-09-11T21:36:26.122Z,14.02
2022-09-11T21:38:53.459Z,13.45
2022-09-11T21:41:20.762Z,12.13
2022-09-11T21:43:48.721Z,11.95
2022-09-11T21:46:16.240Z,14.40
2022-09-11T21:48:43.492Z,13.73
2022-09-11T21:51:14.232Z,13.43
2022-09-11T21:53:44.425Z,14.07
2022-09-11T21:56:25.024Z,14.85
2022-09-11T21:58:53.383Z,15.05
2022-09-11T22:01:22.750Z,17.63
2022-09-11T22:03:50.512Z,23.55
2022-09-11T22:06:20.327Z,25.65
2022-09-11T22:08:47.871Z,16.63
2022-09-11T22:11:16.250Z,17.45
2022-09-11T22:13:44.289Z,14.85
2022-09-11T22:16:13.979Z,15.93
2022-09-11T22:18:41.887Z,12.95
2022-09-11T22:21:10.430Z,12.60
2022-09-11T22:23:38.042Z,15.27
2022-09-11T22:26:11.420Z,15.55
2022-09-11T22:28:39.115Z,15.60
2022-09-11T22:31:12.341Z,15.52
2022-09-11T22:33:41.058Z,15.90
2022-09-11T22:36:10.853Z,13.52
2022-09-11T22:38:38.122Z,14.77
2022-09-11T22:41:05.967Z,17.45
2022-09-11T22:43:33.254Z,16.65
2022-09-11T22:46:00.560Z,14.98
2022-09-11T22:48:28.320Z,13.35
2022-09-11T22:50:57.549Z,14.85
2022-09-11T22:53:26.105Z,16.23
2022-09-11T22:55:54.063Z,16.70
2022-09-11T22:58:21.972Z,16.58
2022-09-11T23:00:50.277Z,16.20
2022-09-11T23:03:18.539Z,14.70
2022-09-11T23:06:04.540Z,17.55
2022-09-11T23:08:39.065Z,17.73
2022-09-11T23:11:07.347Z,17.85
2022-09-11T23:13:35.187Z,14.88
2022-09-11T23:16:13.361Z,15.73
2022-09-11T23:18:41.515Z,16.90
2022-09-11T23:21:09.471Z,15.65
2022-09-11T23:23:40.976Z,19.92
2022-09-11T23:28:37.844Z,17.23
2022-09-11T23:31:11.385Z,21.33
2022-09-11T23:33:38.762Z,15.05
2022-09-11T23:36:11.362Z,17.40
2022-09-11T23:38:38.924Z,17.48
2022-09-11T23:41:07.421Z,20.67
2022-09-11T23:43:34.732Z,18.60
2022-09-11T23:46:02.513Z,15.82
2022-09-11T23:48:30.130Z,17.85
2022-09-11T23:50:57.358Z,20.33
2022-09-11T23:53:24.443Z,20.35
2022-09-11T23:55:51.898Z,18.15
2022-09-11T23:58:19.063Z,19.67
